Terminal Aerodrome Forecast
Issued by NWS Tampa Bay Area, FL

Home | Current Version | Previous Version | Text Only | Print | Product List | Glossary On
Versions: 1 2 3 4 5 6 7 8 9 10 11 12 13 14 15
314
FTUS42 KTBW 191329 AAA
TAFFMY
TAF AMD
KFMY 191329Z 1913/2012 24004KT 5SM BR SCT006 BKN060
      TEMPO 1913/1914 3SM BR BKN006
     FM191500 27005KT P6SM SCT006 BKN035
     FM191700 31007KT P6SM SCT040 SCT250
     FM200200 VRB03KT P6SM SKC=

USA.gov is the U.S. government's official web portal to all federal, state and local government web resources and services.